Time;durP1;ratioP1;P1;durP2;ratioP2;P2;SDS_P1;SDS_P2;PMS_P1;PMS_P2;Temp;Humidity;BMP_temperature;BMP_pressure;BME280_temperature;BME280_humidity;BME280_pressure;Samples;Min_cycle;Max_cycle;Signal;HPM_P1;HPM_P2
2022/02/08 00:00:03;;;;;;;1.85;0.82;;;18.30;57.90;;;;;;5059407;28;20169;-81
2022/02/08 00:02:30;;;;;;;2.22;0.60;;;18.30;57.80;;;;;;5058769;28;20156;-81
2022/02/08 00:04:58;;;;;;;4.30;0.90;;;18.30;57.60;;;;;;5057174;28;20146;-82
2022/02/08 00:07:26;;;;;;;3.03;0.80;;;18.20;57.60;;;;;;5057310;28;20193;-82
2022/02/08 00:09:52;;;;;;;3.67;0.88;;;18.20;57.70;;;;;;5060539;28;20269;-81
2022/02/08 00:12:18;;;;;;;2.58;0.90;;;18.20;57.90;;;;;;5059822;28;20168;-81
2022/02/08 00:14:44;;;;;;;3.58;0.98;;;18.20;57.90;;;;;;5094460;28;20612;-83
2022/02/08 00:17:10;;;;;;;1.90;0.80;;;18.20;57.80;;;;;;5059892;28;20200;-81
2022/02/08 00:19:36;;;;;;;3.38;0.65;;;18.20;58.00;;;;;;5059781;28;20222;-82
2022/02/08 00:22:03;;;;;;;1.88;0.60;;;18.20;57.70;;;;;;5059772;28;20638;-82
2022/02/08 00:24:29;;;;;;;1.63;0.70;;;18.20;58.00;;;;;;5060072;28;20260;-81
2022/02/08 00:26:54;;;;;;;2.80;0.80;;;18.20;57.90;;;;;;5076376;28;20271;-81
2022/02/08 00:29:21;;;;;;;2.83;0.50;;;18.20;57.80;;;;;;5076023;28;20671;-82
2022/02/08 00:31:47;;;;;;;1.65;0.60;;;18.20;58.20;;;;;;5076411;28;20145;-82
2022/02/08 00:34:13;;;;;;;1.50;0.80;;;18.10;58.20;;;;;;5059620;28;20516;-83
2022/02/08 00:36:39;;;;;;;2.13;0.82;;;18.10;58.30;;;;;;5060061;28;20175;-82
2022/02/08 00:39:07;;;;;;;2.38;0.82;;;18.10;58.40;;;;;;5076029;28;20636;-80
2022/02/08 00:41:35;;;;;;;3.05;1.00;;;18.10;58.30;;;;;;5059847;28;20165;-81
2022/02/08 00:44:14;;;;;;;1.98;0.55;;;18.10;58.40;;;;;;5076235;28;20235;-83
2022/02/08 00:46:47;;;;;;;2.53;0.70;;;18.10;58.50;;;;;;5077711;28;20198;-81
2022/02/08 00:49:13;;;;;;;1.55;0.65;;;18.10;58.50;;;;;;5077036;28;20147;-80
2022/02/08 00:51:44;;;;;;;1.30;0.68;;;18.10;58.20;;;;;;5059359;28;20251;-82
2022/02/08 00:54:10;;;;;;;1.48;0.70;;;18.10;58.20;;;;;;5059924;28;20172;-83
2022/02/08 00:56:37;;;;;;;3.35;0.88;;;18.10;58.10;;;;;;5059108;28;20567;-81
2022/02/08 00:59:05;;;;;;;1.38;0.82;;;18.10;58.30;;;;;;5075003;28;20710;-81
2022/02/08 01:01:36;;;;;;;2.58;0.75;;;18.10;58.20;;;;;;5074772;28;20651;-80
2022/02/08 01:04:04;;;;;;;2.33;0.70;;;18.10;58.50;;;;;;5091700;28;20189;-82
2022/02/08 01:06:31;;;;;;;4.57;0.90;;;18.10;58.30;;;;;;5091718;28;20262;-80
2022/02/08 01:09:12;;;;;;;2.05;0.73;;;18.00;58.10;;;;;;5074847;28;20317;-81
2022/02/08 01:11:40;;;;;;;3.35;0.75;;;18.00;58.50;;;;;;5075250;28;20192;-81
2022/02/08 01:14:05;;;;;;;1.88;0.90;;;18.00;58.20;;;;;;5092948;28;20177;-82
2022/02/08 01:16:31;;;;;;;1.95;0.80;;;18.10;58.30;;;;;;5075454;28;20199;-81
2022/02/08 01:18:59;;;;;;;1.48;0.70;;;18.00;58.40;;;;;;5058907;28;20168;-80
2022/02/08 01:21:24;;;;;;;1.60;0.60;;;18.00;58.10;;;;;;5059080;28;20513;-81
2022/02/08 01:23:50;;;;;;;3.95;0.73;;;18.00;58.30;;;;;;5059093;28;20681;-80
2022/02/08 01:26:18;;;;;;;2.20;0.77;;;18.00;58.50;;;;;;5092295;28;20218;-82
2022/02/08 01:28:54;;;;;;;3.90;0.73;;;18.00;58.30;;;;;;5075320;28;20195;-81
2022/02/08 01:31:21;;;;;;;2.03;0.80;;;18.00;58.10;;;;;;5092269;28;20193;-82
2022/02/08 01:36:36;;;;;;;0.88;0.47;;;17.90;58.50;;;;;;5093271;28;20244;-80
2022/02/08 01:39:27;;;;;;;3.70;0.60;;;18.00;58.70;;;;;;5091751;28;20642;-83
2022/02/08 01:42:13;;;;;;;1.75;0.68;;;18.00;58.50;;;;;;5090991;28;20264;-83
2022/02/08 01:44:57;;;;;;;2.75;0.73;;;17.90;58.20;;;;;;5091714;28;20259;-81
2022/02/08 01:47:30;;;;;;;2.55;0.80;;;17.90;58.10;;;;;;5074837;28;20232;-84
2022/02/08 01:50:07;;;;;;;2.75;0.90;;;17.90;58.30;;;;;;5074380;28;20185;-83
2022/02/08 01:52:33;;;;;;;2.83;1.10;;;18.00;58.00;;;;;;5045594;28;20237;-80
2022/02/08 01:55:00;;;;;;;4.40;0.70;;;18.00;58.40;;;;;;5074492;28;20173;-82
2022/02/08 01:57:27;;;;;;;1.80;0.68;;;17.90;58.60;;;;;;5057890;28;20217;-84
2022/02/08 01:59:53;;;;;;;1.30;0.77;;;17.80;58.20;;;;;;5075064;28;20165;-83
2022/02/08 02:02:19;;;;;;;1.30;0.63;;;17.90;58.30;;;;;;5093314;28;20240;-80
2022/02/08 02:04:45;;;;;;;2.95;0.88;;;17.90;58.40;;;;;;5075376;28;20189;-83
2022/02/08 02:07:11;;;;;;;3.47;1.00;;;17.90;58.50;;;;;;5058240;28;20335;-82
2022/02/08 02:09:38;;;;;;;2.58;0.90;;;17.80;58.30;;;;;;5058682;28;20754;-83
2022/02/08 02:12:07;;;;;;;1.98;0.85;;;17.90;58.60;;;;;;5092294;28;20481;-83
2022/02/08 02:14:36;;;;;;;1.90;0.77;;;17.80;58.50;;;;;;5075257;28;20154;-80
2022/02/08 02:17:04;;;;;;;0.68;0.50;;;17.90;58.60;;;;;;5058483;28;20175;-81
2022/02/08 02:19:32;;;;;;;2.35;0.90;;;17.80;58.30;;;;;;5040821;28;20181;-83
2022/02/08 02:22:00;;;;;;;1.27;0.50;;;17.80;58.60;;;;;;5057368;28;20586;-81
2022/02/08 02:24:27;;;;;;;2.30;0.70;;;17.80;58.40;;;;;;5074433;28;20215;-82
2022/02/08 02:26:56;;;;;;;1.08;0.68;;;17.80;58.50;;;;;;5090946;28;20208;-83
2022/02/08 02:29:23;;;;;;;2.25;0.70;;;17.80;58.40;;;;;;5057987;28;20176;-83
2022/02/08 02:31:50;;;;;;;1.00;0.50;;;17.80;58.60;;;;;;5074232;28;20176;-81
2022/02/08 02:34:17;;;;;;;1.98;0.80;;;17.80;58.30;;;;;;5057434;28;20256;-82
2022/02/08 02:36:44;;;;;;;3.10;0.80;;;17.80;58.40;;;;;;5074843;28;20156;-82
2022/02/08 02:39:10;;;;;;;3.38;0.90;;;17.80;58.50;;;;;;5091736;28;20164;-80
2022/02/08 02:41:37;;;;;;;2.70;0.63;;;17.90;58.70;;;;;;5091784;28;20190;-80
2022/02/08 02:44:05;;;;;;;2.53;0.65;;;17.80;58.60;;;;;;5058030;28;20615;-81
2022/02/08 02:46:32;;;;;;;1.45;0.60;;;17.80;58.30;;;;;;5074892;28;20191;-82
2022/02/08 02:48:59;;;;;;;1.27;0.65;;;17.70;58.30;;;;;;5073659;28;20172;-81
2022/02/08 02:51:25;;;;;;;1.40;0.70;;;17.80;58.70;;;;;;5074920;28;20222;-80
2022/02/08 02:53:51;;;;;;;2.53;0.88;;;17.80;58.70;;;;;;5093649;28;20145;-82
2022/02/08 02:56:18;;;;;;;1.83;0.95;;;17.80;58.40;;;;;;5078792;28;20599;-81
2022/02/08 02:58:43;;;;;;;0.95;0.70;;;17.80;58.30;;;;;;5094215;28;20374;-83
2022/02/08 03:01:20;;;;;;;1.15;0.70;;;17.80;58.50;;;;;;5061258;28;20212;-80
2022/02/08 03:03:51;;;;;;;2.20;0.75;;;17.70;58.60;;;;;;5062920;28;20209;-80
2022/02/08 03:19:40;;;;;;;0.90;0.60;;;17.70;58.80;;;;;;5079716;28;20530;-82
2022/02/08 03:22:06;;;;;;;2.10;0.80;;;17.70;58.80;;;;;;5077539;28;20165;-83
2022/02/08 03:24:31;;;;;;;1.80;0.70;;;17.70;58.80;;;;;;5061265;28;20175;-82
2022/02/08 03:26:59;;;;;;;3.17;0.65;;;17.70;58.70;;;;;;5077371;28;20212;-80
2022/02/08 03:29:26;;;;;;;2.38;0.73;;;17.70;58.50;;;;;;5077118;28;20180;-82
2022/02/08 03:31:53;;;;;;;1.05;0.70;;;17.70;58.40;;;;;;5076840;28;20183;-82
2022/02/08 03:34:20;;;;;;;1.85;0.70;;;17.70;58.70;;;;;;5060169;28;20187;-83
2022/02/08 03:36:48;;;;;;;1.33;0.70;;;17.70;58.50;;;;;;5076630;28;20704;-81
2022/02/08 03:39:21;;;;;;;2.42;0.70;;;17.70;58.70;;;;;;5076654;28;20710;-80
2022/02/08 03:41:52;;;;;;;3.08;0.70;;;17.60;58.70;;;;;;5076853;28;20184;-81
2022/02/08 03:44:23;;;;;;;1.63;0.63;;;17.60;58.70;;;;;;5093638;28;20180;-79
2022/02/08 03:46:51;;;;;;;2.72;0.73;;;17.70;58.50;;;;;;5076487;28;20208;-82
2022/02/08 03:49:17;;;;;;;4.10;0.75;;;17.60;58.70;;;;;;5077554;28;20145;-81
2022/02/08 03:51:54;;;;;;;1.75;0.82;;;17.60;58.70;;;;;;5077126;28;20161;-82
2022/02/08 03:54:20;;;;;;;1.83;0.60;;;17.60;58.70;;;;;;5061766;28;20653;-82
2022/02/08 03:56:46;;;;;;;1.73;0.77;;;17.60;58.60;;;;;;5076804;28;20562;-82
2022/02/08 03:59:13;;;;;;;2.38;0.80;;;17.60;58.70;;;;;;5077290;28;20153;-80
2022/02/08 04:02:04;;;;;;;3.22;0.88;;;17.60;58.50;;;;;;5060669;28;20175;-82
2022/02/08 04:07:17;;;;;;;1.65;0.80;;;17.60;58.70;;;;;;5065964;28;20192;-81
2022/02/08 04:09:43;;;;;;;1.88;1.00;;;17.60;58.70;;;;;;5076473;28;20574;-80
2022/02/08 04:12:19;;;;;;;1.63;0.65;;;17.60;58.70;;;;;;5060035;28;20168;-83
2022/02/08 04:15:08;;;;;;;0.60;0.50;;;17.50;58.70;;;;;;5061135;28;20262;-81
2022/02/08 04:17:42;;;;;;;0.98;0.65;;;17.60;58.70;;;;;;5094468;28;20172;-83
2022/02/08 04:31:24;;;;;;;1.05;0.60;;;17.50;58.70;;;;;;5078530;28;20615;-83
2022/02/08 04:36:40;;;;;;;1.42;0.57;;;17.50;58.60;;;;;;5078377;28;20282;-82
2022/02/08 04:42:02;;;;;;;1.85;0.63;;;17.50;58.70;;;;;;5065149;28;20263;-82
2022/02/08 04:44:39;;;;;;;1.33;0.70;;;17.60;58.70;;;;;;5093423;28;20156;-82
2022/02/08 04:47:12;;;;;;;1.20;0.60;;;17.60;58.70;;;;;;5094252;28;20669;-82
2022/02/08 04:49:38;;;;;;;2.47;1.00;;;17.50;58.70;;;;;;5060363;28;20294;-81
2022/02/08 04:52:07;;;;;;;1.50;0.60;;;17.60;58.50;;;;;;5059216;28;20251;-81
2022/02/08 04:54:59;;;;;;;1.52;0.65;;;17.60;58.70;;;;;;5059555;28;20168;-79
2022/02/08 04:57:28;;;;;;;1.42;0.52;;;17.50;58.70;;;;;;5078619;28;20176;-80
2022/02/08 05:00:21;;;;;;;2.00;0.70;;;17.50;58.70;;;;;;5093932;28;20152;-80
2022/02/08 05:43:23;;;;;;;1.52;0.70;;;17.80;57.20;;;;;;5075989;28;20157;-81
2022/02/08 05:46:26;;;;;;;1.25;0.52;;;17.90;56.90;;;;;;5090843;28;20233;-82
2022/02/08 05:49:01;;;;;;;1.85;0.68;;;17.80;56.80;;;;;;5090800;28;20245;-80
2022/02/08 05:54:27;;;;;;;1.88;0.60;;;17.90;56.50;;;;;;5078066;28;20621;-80
2022/02/08 05:56:59;;;;;;;2.10;0.60;;;17.90;56.60;;;;;;5091379;28;20643;-83
2022/02/08 05:59:31;;;;;;;0.82;0.43;;;17.90;56.60;;;;;;5074613;28;20216;-82
2022/02/08 06:02:03;;;;;;;1.98;0.40;;;17.90;56.30;;;;;;5057708;28;20229;-79
2022/02/08 06:04:33;;;;;;;1.77;0.80;;;17.90;56.60;;;;;;5074411;28;20176;-81
2022/02/08 06:06:58;;;;;;;0.50;0.50;;;18.00;56.30;;;;;;5058806;28;20192;-82
2022/02/08 06:09:24;;;;;;;1.33;0.60;;;18.00;56.20;;;;;;5075477;28;20164;-80
2022/02/08 06:11:50;;;;;;;0.85;0.50;;;18.00;56.30;;;;;;5075528;28;20213;-82
2022/02/08 06:14:24;;;;;;;1.27;0.63;;;17.90;56.40;;;;;;5074670;28;20729;-81
2022/02/08 06:17:09;;;;;;;1.75;0.63;;;18.00;56.10;;;;;;5074672;28;20155;-83
2022/02/08 06:19:56;;;;;;;1.33;0.60;;;18.00;55.90;;;;;;5086877;28;20181;-83
2022/02/08 06:22:42;;;;;;;1.13;0.70;;;18.10;55.70;;;;;;5085702;28;20216;-80
2022/02/08 06:25:28;;;;;;;1.73;0.50;;;18.10;55.80;;;;;;5073672;28;20554;-81
2022/02/08 06:28:14;;;;;;;0.50;0.50;;;18.10;55.60;;;;;;5014938;28;20218;-81
2022/02/08 06:30:39;;;;;;;2.08;0.60;;;18.10;56.10;;;;;;4998421;28;20324;-81
2022/02/08 06:33:25;;;;;;;0.95;0.50;;;18.10;55.60;;;;;;4998481;28;20689;-80
2022/02/08 06:36:10;;;;;;;2.00;0.52;;;18.10;55.30;;;;;;4981910;28;20179;-79
2022/02/08 06:38:56;;;;;;;2.55;0.73;;;18.10;55.30;;;;;;4981787;28;20213;-79
2022/02/08 06:41:22;;;;;;;1.08;0.50;;;18.20;55.60;;;;;;5014465;28;20665;-84
2022/02/08 06:44:07;;;;;;;0.80;0.60;;;18.10;55.40;;;;;;5014594;28;20194;-80
2022/02/08 06:46:53;;;;;;;0.50;0.45;;;18.10;55.20;;;;;;4981560;28;20212;-82
2022/02/08 06:49:38;;;;;;;0.70;0.65;;;18.20;55.20;;;;;;5014173;28;20190;-82
2022/02/08 06:52:24;;;;;;;0.63;0.45;;;18.20;55.00;;;;;;4997920;28;20703;-80
2022/02/08 06:55:10;;;;;;;1.25;0.60;;;18.20;54.90;;;;;;4997918;28;20183;-83
2022/02/08 06:58:03;;;;;;;1.40;0.55;;;18.20;55.00;;;;;;4981836;28;20185;-80
2022/02/08 07:00:49;;;;;;;2.28;0.70;;;18.20;55.00;;;;;;4968940;28;20198;-82
2022/02/08 07:03:33;;;;;;;0.85;0.50;;;18.20;55.10;;;;;;4984968;28;20193;-80
2022/02/08 07:06:16;;;;;;;1.02;0.50;;;18.20;55.00;;;;;;5017178;28;20689;-83
2022/02/08 07:08:42;;;;;;;0.57;0.57;;;18.30;54.70;;;;;;5017051;28;20245;-80
2022/02/08 07:11:25;;;;;;;0.95;0.60;;;18.20;54.60;;;;;;5066005;28;20297;-81
2022/02/08 07:13:56;;;;;;;0.95;0.65;;;18.20;54.80;;;;;;5094406;28;20172;-80
2022/02/08 07:16:36;;;;;;;1.23;0.60;;;18.30;54.80;;;;;;5094276;28;20199;-84
2022/02/08 07:19:17;;;;;;;0.75;0.60;;;18.20;54.70;;;;;;5094378;28;20187;-82
2022/02/08 07:21:55;;;;;;;1.42;0.60;;;18.30;55.20;;;;;;5094424;28;20271;-81
2022/02/08 07:24:33;;;;;;;1.65;0.50;;;18.30;54.90;;;;;;5043817;28;20176;-83
2022/02/08 07:27:11;;;;;;;1.33;0.52;;;18.20;54.80;;;;;;5076908;28;20295;-80
2022/02/08 07:29:52;;;;;;;1.88;0.57;;;18.20;55.30;;;;;;5077518;28;20180;-83
2022/02/08 07:32:34;;;;;;;0.63;0.52;;;18.20;54.90;;;;;;5076726;28;20188;-82
2022/02/08 07:38:09;;;;;;;1.25;0.50;;;18.20;55.10;;;;;;5078410;28;20184;-81
2022/02/08 07:41:36;;;;;;;1.15;0.60;;;18.30;55.00;;;;;;5092662;28;20204;-81
2022/02/08 07:43:27;;;;;;;0.77;0.55;;;18.30;54.80;;;;;;5079609;28;20192;-80
2022/02/08 07:45:53;;;;;;;0.80;0.50;;;18.30;54.60;;;;;;5076484;28;20248;-82
2022/02/08 07:48:23;;;;;;;1.40;0.70;;;18.30;54.50;;;;;;5094093;28;20583;-79
2022/02/08 07:50:52;;;;;;;1.05;0.52;;;18.30;55.00;;;;;;5059991;28;20202;-81
2022/02/08 07:53:26;;;;;;;1.13;0.40;;;18.20;54.80;;;;;;5059366;28;20253;-83
2022/02/08 07:55:52;;;;;;;0.90;0.60;;;18.30;54.90;;;;;;5076510;28;20185;-82
2022/02/08 07:58:18;;;;;;;1.58;0.52;;;18.30;55.00;;;;;;5076542;28;20173;-82
2022/02/08 08:00:43;;;;;;;3.33;0.60;;;18.30;54.60;;;;;;5092096;28;20165;-79
2022/02/08 08:03:09;;;;;;;0.98;0.40;;;18.30;54.40;;;;;;5058311;28;20245;-81
2022/02/08 08:05:34;;;;;;;0.63;0.50;;;18.30;55.10;;;;;;5075540;28;20176;-79
2022/02/08 08:08:00;;;;;;;1.20;0.70;;;18.30;54.70;;;;;;5092164;28;20495;-79
2022/02/08 08:10:30;;;;;;;0.63;0.60;;;18.30;54.80;;;;;;5075129;28;20219;-83
2022/02/08 08:12:56;;;;;;;1.75;0.50;;;18.30;55.00;;;;;;5076025;28;20627;-80
2022/02/08 08:18:02;;;;;;;0.75;0.60;;;18.30;55.20;;;;;;5093427;28;20165;-81
2022/02/08 08:20:28;;;;;;;1.65;0.73;;;18.30;54.50;;;;;;5094449;28;20160;-81
2022/02/08 08:22:54;;;;;;;1.45;0.68;;;18.40;54.70;;;;;;5060198;28;20172;-83
2022/02/08 08:25:20;;;;;;;1.20;0.50;;;18.40;54.70;;;;;;5060500;28;20206;-82
2022/02/08 08:27:46;;;;;;;1.52;0.60;;;18.40;54.50;;;;;;5077361;28;20184;-83
2022/02/08 08:30:11;;;;;;;1.13;0.40;;;18.40;54.70;;;;;;5076962;28;20274;-81
2022/02/08 08:32:40;;;;;;;1.25;0.50;;;18.40;54.50;;;;;;5076567;28;20172;-81
2022/02/08 08:35:08;;;;;;;1.42;0.77;;;18.30;54.60;;;;;;5092442;28;20196;-82
2022/02/08 08:37:41;;;;;;;1.17;0.65;;;18.40;54.60;;;;;;5075401;28;20188;-81
2022/02/08 08:40:18;;;;;;;2.08;0.70;;;18.40;54.10;;;;;;5075164;28;20200;-80
2022/02/08 08:43:03;;;;;;;1.95;0.80;;;18.40;54.20;;;;;;5061892;28;20535;-81
2022/02/08 08:48:47;;;;;;;1.17;0.50;;;18.40;54.40;;;;;;5064840;28;20236;-80
2022/02/08 08:51:17;;;;;;;1.85;0.60;;;18.40;54.30;;;;;;5092421;28;20161;-82
2022/02/08 08:53:44;;;;;;;1.58;0.70;;;18.40;53.90;;;;;;5076169;28;20623;-83
2022/02/08 08:56:10;;;;;;;0.60;0.50;;;18.40;54.40;;;;;;5076602;28;20192;-79
2022/02/08 08:58:38;;;;;;;0.70;0.40;;;18.40;54.20;;;;;;5092556;28;20576;-80
2022/02/08 09:01:04;;;;;;;1.77;0.77;;;18.50;54.30;;;;;;5076650;28;20152;-82
2022/02/08 09:03:30;;;;;;;1.27;0.50;;;18.50;54.50;;;;;;5060038;28;20174;-81
2022/02/08 09:05:55;;;;;;;2.53;0.60;;;18.50;54.30;;;;;;5092449;28;20161;-80
2022/02/08 09:08:27;;;;;;;1.67;0.75;;;18.50;54.30;;;;;;5076612;28;20646;-82
2022/02/08 09:11:01;;;;;;;0.95;0.60;;;18.40;54.60;;;;;;5059041;28;20608;-84
2022/02/08 09:13:35;;;;;;;3.70;0.70;;;18.50;54.70;;;;;;5075488;28;20186;-85
2022/02/08 09:16:23;;;;;;;1.45;0.50;;;18.50;54.50;;;;;;5071425;28;20546;-80
2022/02/08 09:19:09;;;;;;;1.23;0.60;;;18.50;54.10;;;;;;5058255;28;20175;-81
2022/02/08 09:22:16;;;;;;;0.60;0.50;;;18.50;54.40;;;;;;5073764;28;20193;-79
2022/02/08 09:24:37;;;;;;;1.45;0.70;;;18.50;54.40;;;;;;5074718;28;20639;-82
2022/02/08 09:29:52;;;;;;;0.93;0.50;;;18.50;54.50;;;;;;5050373;28;20195;-84
2022/02/08 09:34:58;;;;;;;2.05;0.77;;;18.60;54.40;;;;;;5066622;28;20168;-78
2022/02/08 09:37:23;;;;;;;1.38;0.70;;;18.50;54.60;;;;;;5078489;28;20164;-79
2022/02/08 09:39:51;;;;;;;1.88;0.82;;;18.60;54.70;;;;;;5059983;28;20251;-79
2022/02/08 09:42:17;;;;;;;1.65;0.65;;;18.50;54.60;;;;;;5058023;28;20177;-80
2022/02/08 09:44:43;;;;;;;0.90;0.60;;;18.60;54.80;;;;;;5058030;28;20163;-81
2022/02/08 09:47:13;;;;;;;1.98;0.70;;;18.60;54.80;;;;;;5074397;28;20188;-78
2022/02/08 09:49:44;;;;;;;1.85;0.70;;;18.50;55.00;;;;;;5074774;28;20149;-81
2022/02/08 09:52:10;;;;;;;1.73;0.80;;;18.60;54.40;;;;;;5058420;28;20157;-81
2022/02/08 09:54:36;;;;;;;1.45;0.60;;;18.60;54.50;;;;;;5049145;28;20537;-78
2022/02/08 09:57:02;;;;;;;1.60;0.70;;;18.60;54.40;;;;;;5080181;28;20675;-79
2022/02/08 09:59:28;;;;;;;1.50;0.77;;;18.60;54.80;;;;;;5077909;28;20801;-82
2022/02/08 10:01:56;;;;;;;2.55;0.70;;;18.60;54.70;;;;;;5045622;28;20196;-79
2022/02/08 10:04:21;;;;;;;2.85;0.65;;;18.60;54.90;;;;;;5061957;28;20160;-80
2022/02/08 10:06:47;;;;;;;2.38;0.80;;;18.60;55.00;;;;;;5065715;28;20195;-83
2022/02/08 10:09:13;;;;;;;1.33;0.60;;;18.50;54.60;;;;;;5062113;28;20577;-80
2022/02/08 10:11:44;;;;;;;2.17;0.75;;;18.60;54.70;;;;;;5091778;28;20266;-81
2022/02/08 10:14:22;;;;;;;1.48;0.50;;;18.50;54.70;;;;;;5081557;28;20167;-81
2022/02/08 10:22:40;;;;;;;1.77;0.80;;;18.60;54.40;;;;;;5087989;28;20237;-81
2022/02/08 10:25:08;;;;;;;1.92;0.50;;;18.60;54.80;;;;;;5065940;28;20622;-84
2022/02/08 10:27:39;;;;;;;1.30;0.50;;;18.60;54.60;;;;;;5116784;28;20546;-83
2022/02/08 10:38:18;;;;;;;1.55;0.50;;;18.70;54.00;;;;;;5086372;28;20164;-80
2022/02/08 10:40:44;;;;;;;2.70;0.90;;;18.70;54.60;;;;;;5099085;28;20164;-84
2022/02/08 10:43:15;;;;;;;1.92;0.80;;;18.70;54.20;;;;;;5081556;28;20191;-81
2022/02/08 10:45:41;;;;;;;1.05;0.60;;;18.70;54.40;;;;;;5082737;28;20171;-81
2022/02/08 10:48:09;;;;;;;1.27;0.55;;;18.70;54.10;;;;;;5081915;28;20192;-80
2022/02/08 10:50:37;;;;;;;1.13;0.60;;;18.70;54.30;;;;;;5098422;28;20303;-81
2022/02/08 10:53:05;;;;;;;0.90;0.50;;;18.70;54.20;;;;;;5083036;28;20179;-82
2022/02/08 10:55:44;;;;;;;0.63;0.30;;;18.70;54.10;;;;;;5085508;28;20297;-81
2022/02/08 11:00:59;;;;;;;0.98;0.55;;;18.70;54.30;;;;;;5052071;28;20253;-84
2022/02/08 11:03:42;;;;;;;1.20;0.57;;;18.70;53.90;;;;;;5035809;28;20549;-83
2022/02/08 11:06:18;;;;;;;0.90;0.50;;;18.70;54.40;;;;;;5034337;28;20267;-81
2022/02/08 11:09:04;;;;;;;1.27;0.60;;;18.70;54.30;;;;;;5051792;28;20713;-82
2022/02/08 11:17:36;;;;;;;1.13;0.50;;;18.70;54.10;;;;;;5069157;28;20255;-84
2022/02/08 11:20:00;;;;;;;1.38;0.63;;;18.70;53.80;;;;;;5072657;28;20636;-83
2022/02/08 11:22:41;;;;;;;2.22;0.70;;;18.70;53.80;;;;;;5068302;28;20168;-82
2022/02/08 11:25:20;;;;;;;1.17;0.50;;;18.70;54.10;;;;;;5068202;28;20172;-82
2022/02/08 11:27:50;;;;;;;2.45;0.55;;;18.70;53.60;;;;;;5067867;28;20306;-80
2022/02/08 11:30:26;;;;;;;0.60;0.40;;;18.70;54.10;;;;;;5081858;28;20161;-82
2022/02/08 11:33:09;;;;;;;1.50;0.70;;;18.70;53.90;;;;;;5064363;28;20657;-81
2022/02/08 11:44:25;;;;;;;0.88;0.60;;;18.70;54.10;;;;;;5087063;28;20171;-81
2022/02/08 11:55:25;;;;;;;1.38;0.50;;;18.70;54.20;;;;;;5084482;28;20191;-81
2022/02/08 11:58:11;;;;;;;0.60;0.60;;;18.70;53.70;;;;;;5100178;28;20718;-84
2022/02/08 12:00:43;;;;;;;1.15;0.60;;;18.70;53.80;;;;;;5086168;28;20702;-84
2022/02/08 12:06:06;;;;;;;0.98;0.60;;;18.80;54.30;;;;;;5083815;28;20187;-82
2022/02/08 12:08:32;;;;;;;1.25;0.60;;;18.70;54.10;;;;;;5069228;28;20840;-81
2022/02/08 12:11:29;;;;;;;1.15;0.50;;;18.60;54.20;;;;;;5115094;28;20299;-82
2022/02/08 12:32:55;;;;;;;0.75;0.50;;;18.70;53.90;;;;;;5084332;28;20159;-80
2022/02/08 12:35:35;;;;;;;0.85;0.50;;;18.70;54.10;;;;;;5100649;28;20144;-82
2022/02/08 12:54:30;;;;;;;0.57;0.50;;;18.80;52.70;;;;;;5098372;28;20649;-86
2022/02/08 12:57:14;;;;;;;1.10;0.60;;;18.80;52.90;;;;;;5081561;28;20220;-82
2022/02/08 13:00:05;;;;;;;1.02;0.40;;;18.80;53.30;;;;;;5062999;28;20179;-82
2022/02/08 13:03:03;;;;;;;1.00;0.60;;;18.90;52.90;;;;;;5052829;28;20215;-82
2022/02/08 14:01:46;;;;;;;1.73;0.38;;;19.00;52.80;;;;;;5129484;28;20164;-82
2022/02/08 14:07:32;;;;;;;0.90;0.52;;;19.00;53.20;;;;;;5100890;28;20207;-81
2022/02/08 14:10:11;;;;;;;0.90;0.50;;;19.10;52.90;;;;;;5033257;28;20603;-78
2022/02/08 14:18:07;;;;;;;0.98;0.57;;;19.00;52.20;;;;;;5032791;28;20665;-80
2022/02/08 14:26:01;;;;;;;1.05;0.47;;;19.10;52.40;;;;;;5406900;22;20233;-81
2022/02/08 14:34:10;;;;;;;2.92;0.70;;;19.10;52.50;;;;;;5009213;28;20185;-80
2022/02/08 14:37:04;;;;;;;0.55;0.45;;;19.20;53.50;;;;;;5023216;28;20174;-80
2022/02/08 15:07:13;;;;;;;1.40;0.80;;;19.20;53.30;;;;;;5023926;28;20174;-80
2022/02/08 15:09:24;;;;;;;0.63;0.50;;;19.20;53.40;;;;;;4995860;28;20649;-82
2022/02/08 15:14:48;;;;;;;1.25;0.50;;;19.20;54.30;;;;;;5025948;28;20166;-81
2022/02/08 15:17:14;;;;;;;2.25;0.70;;;19.10;54.30;;;;;;5029834;28;20167;-81
2022/02/08 15:19:42;;;;;;;0.60;0.57;;;19.10;53.50;;;;;;5013641;28;20175;-78
2022/02/08 15:22:47;;;;;;;2.03;0.70;;;19.20;53.00;;;;;;5013666;28;20166;-81
2022/02/08 15:25:13;;;;;;;1.25;0.50;;;19.20;53.10;;;;;;4982130;28;20758;-79
2022/02/08 15:27:40;;;;;;;6.55;0.85;;;19.20;53.40;;;;;;4974207;28;20256;-81
2022/02/08 15:30:07;;;;;;;2.35;0.55;;;19.20;53.50;;;;;;4954027;28;20188;-79
2022/02/08 15:32:38;;;;;;;4.63;1.00;;;19.20;54.10;;;;;;4982871;28;20153;-81
2022/02/08 15:35:06;;;;;;;9.95;1.00;;;19.20;54.00;;;;;;4951747;28;20192;-81
2022/02/08 15:37:32;;;;;;;6.45;0.90;;;19.20;54.00;;;;;;4947006;29;20186;-80
2022/02/08 15:40:10;;;;;;;10.40;0.98;;;19.10;53.50;;;;;;4948142;29;20344;-83
2022/02/08 15:43:26;;;;;;;5.65;0.80;;;19.20;53.80;;;;;;4976132;28;20218;-79
2022/02/08 15:46:45;;;;;;;7.00;1.73;;;19.20;54.50;;;;;;4952527;28;20197;-82
2022/02/08 15:49:12;;;;;;;9.43;1.30;;;19.30;54.30;;;;;;4943373;29;20221;-81
2022/02/08 15:51:45;;;;;;;11.63;1.40;;;19.20;54.50;;;;;;4922968;29;20190;-80
2022/02/08 15:57:31;;;;;;;6.75;1.25;;;19.20;54.40;;;;;;4909469;29;20186;-79
2022/02/08 16:05:41;;;;;;;11.27;1.33;;;19.20;54.40;;;;;;4945776;29;20185;-80
2022/02/08 16:08:20;;;;;;;9.38;1.45;;;19.20;54.60;;;;;;4973383;28;20217;-81
2022/02/08 16:11:01;;;;;;;14.40;2.08;;;19.20;54.40;;;;;;4950800;29;20207;-83
2022/02/08 16:13:41;;;;;;;19.52;1.98;;;19.10;54.30;;;;;;4890615;29;20329;-81
2022/02/08 16:20:05;;;;;;;12.82;1.45;;;19.20;55.10;;;;;;4946179;29;20193;-86
2022/02/08 16:28:48;;;;;;;17.80;2.13;;;19.30;54.90;;;;;;4965395;28;20268;-85
2022/02/08 16:31:42;;;;;;;9.15;1.42;;;19.20;55.10;;;;;;4911498;29;20218;-82
2022/02/08 16:53:07;;;;;;;12.55;1.90;;;19.40;56.10;;;;;;4963895;28;20624;-82
2022/02/08 16:55:48;;;;;;;17.42;2.20;;;19.40;56.70;;;;;;4948585;28;20191;-84
2022/02/08 16:58:36;;;;;;;20.13;2.03;;;19.40;56.60;;;;;;4918295;28;20279;-83
2022/02/08 17:01:10;;;;;;;10.25;1.73;;;19.40;56.60;;;;;;4950939;28;20274;-81
2022/02/08 17:03:42;;;;;;;20.50;2.25;;;19.40;56.70;;;;;;5033453;28;20182;-79
2022/02/08 17:06:07;;;;;;;14.93;1.88;;;19.40;57.10;;;;;;5000075;28;20170;-79
2022/02/08 17:08:33;;;;;;;11.40;1.77;;;19.50;57.00;;;;;;5001704;28;20202;-82
2022/02/08 17:11:01;;;;;;;17.30;1.95;;;19.50;57.10;;;;;;5017017;28;20143;-81
2022/02/08 17:19:34;;;;;;;10.70;2.38;;;19.60;56.90;;;;;;5008183;28;20234;-82
2022/02/08 17:36:19;;;;;;;7.35;2.15;;;19.50;58.00;;;;;;4992740;28;20209;-80
2022/02/08 17:44:58;;;;;;;13.40;2.17;;;19.60;58.20;;;;;;4987314;28;20553;-84
2022/02/08 17:46:19;;;;;;;10.75;2.25;;;19.60;58.90;;;;;;4984791;28;20274;-81
2022/02/08 17:48:47;;;;;;;11.73;1.90;;;19.50;59.00;;;;;;4994963;28;20229;-84
2022/02/08 17:51:13;;;;;;;10.30;1.75;;;19.50;59.10;;;;;;4960024;28;20493;-83
2022/02/08 17:53:39;;;;;;;15.40;2.15;;;19.50;59.40;;;;;;4980157;28;20178;-83
2022/02/08 17:56:05;;;;;;;16.02;2.50;;;19.60;60.50;;;;;;4995124;28;20175;-81
2022/02/08 17:58:33;;;;;;;18.45;2.58;;;19.60;61.30;;;;;;4979990;28;20250;-82
2022/02/08 18:01:05;;;;;;;8.98;1.88;;;19.60;59.80;;;;;;4996334;28;20225;-83
2022/02/08 18:03:31;;;;;;;15.85;2.15;;;19.60;60.30;;;;;;4971959;28;20184;-83
2022/02/08 18:06:10;;;;;;;11.65;1.88;;;19.60;60.00;;;;;;4940964;28;20199;-83
2022/02/08 18:08:36;;;;;;;13.80;2.33;;;19.60;60.80;;;;;;4941031;28;20208;-83
2022/02/08 18:11:04;;;;;;;10.55;2.00;;;19.60;61.00;;;;;;4957871;28;20164;-83
2022/02/08 18:13:31;;;;;;;13.45;1.88;;;19.60;61.30;;;;;;4958294;28;20185;-82
2022/02/08 18:15:59;;;;;;;11.18;2.30;;;19.60;60.70;;;;;;4957287;28;20179;-83
2022/02/08 18:18:27;;;;;;;12.35;2.00;;;19.60;61.40;;;;;;4976314;28;20196;-79
2022/02/08 18:20:58;;;;;;;12.50;2.40;;;19.60;61.10;;;;;;4960754;28;20164;-82
2022/02/08 18:27:07;;;;;;;9.48;1.77;;;19.60;61.20;;;;;;4950191;28;20246;-83
2022/02/08 19:07:05;;;;;;;9.43;1.98;;;19.40;60.50;;;;;;4987369;28;20182;-84
2022/02/08 19:09:31;;;;;;;13.07;1.80;;;19.40;61.20;;;;;;4975545;28;20556;-81
2022/02/08 19:12:09;;;;;;;6.93;1.60;;;19.30;59.60;;;;;;4956143;28;20266;-82
2022/02/08 19:17:32;;;;;;;8.77;1.98;;;19.40;60.10;;;;;;5017125;28;20538;-84
2022/02/08 19:20:09;;;;;;;12.32;2.33;;;19.40;60.40;;;;;;4977586;28;20223;-84
2022/02/08 19:22:36;;;;;;;10.15;1.95;;;19.40;61.40;;;;;;4952692;28;20191;-84
2022/02/08 19:25:02;;;;;;;9.23;1.92;;;19.30;60.70;;;;;;4966411;28;20223;-85
2022/02/08 19:27:30;;;;;;;8.07;2.00;;;19.40;61.20;;;;;;4998517;28;20265;-83
2022/02/08 19:29:57;;;;;;;8.05;1.95;;;19.30;61.20;;;;;;4982280;28;20274;-80
2022/02/08 19:32:25;;;;;;;10.75;1.98;;;19.40;60.30;;;;;;4981686;28;20239;-82
2022/02/08 19:34:52;;;;;;;8.10;1.80;;;19.40;60.30;;;;;;4980791;28;20187;-83